sensor_id;sensor_type;location;lat;lon;timestamp;P1;durP1;ratioP1;P2;durP2;ratioP2
1452;SDS011;720;47.738;7.998;2024-03-22T00:00:55;12.90;;;4.10;;
1452;SDS011;720;47.738;7.998;2024-03-22T00:03:20;4.93;;;3.83;;
1452;SDS011;720;47.738;7.998;2024-03-22T00:05:46;6.57;;;3.22;;
1452;SDS011;720;47.738;7.998;2024-03-22T00:08:12;2.70;;;2.50;;
1452;SDS011;720;47.738;7.998;2024-03-22T00:10:38;4.23;;;2.20;;
1452;SDS011;720;47.738;7.998;2024-03-22T00:13:04;4.10;;;2.23;;
1452;SDS011;720;47.738;7.998;2024-03-22T00:15:29;2.90;;;2.30;;
1452;SDS011;720;47.738;7.998;2024-03-22T00:17:55;2.73;;;2.53;;
1452;SDS011;720;47.738;7.998;2024-03-22T00:20:20;1.87;;;1.77;;
1452;SDS011;720;47.738;7.998;2024-03-22T00:22:46;2.33;;;2.13;;
1452;SDS011;720;47.738;7.998;2024-03-22T00:25:12;2.83;;;2.30;;
1452;SDS011;720;47.738;7.998;2024-03-22T00:27:38;3.20;;;2.60;;
1452;SDS011;720;47.738;7.998;2024-03-22T00:30:03;8.03;;;2.70;;
1452;SDS011;720;47.738;7.998;2024-03-22T00:32:29;2.97;;;2.78;;
1452;SDS011;720;47.738;7.998;2024-03-22T00:34:55;2.77;;;2.57;;
1452;SDS011;720;47.738;7.998;2024-03-22T00:37:21;3.00;;;2.70;;
1452;SDS011;720;47.738;7.998;2024-03-22T00:39:46;2.30;;;2.13;;
1452;SDS011;720;47.738;7.998;2024-03-22T00:42:12;2.47;;;2.17;;
1452;SDS011;720;47.738;7.998;2024-03-22T00:44:38;2.60;;;2.50;;
1452;SDS011;720;47.738;7.998;2024-03-22T00:47:03;3.00;;;2.80;;
1452;SDS011;720;47.738;7.998;2024-03-22T00:49:30;3.40;;;2.47;;
1452;SDS011;720;47.738;7.998;2024-03-22T00:51:56;2.97;;;2.53;;
1452;SDS011;720;47.738;7.998;2024-03-22T00:54:22;2.38;;;2.20;;
1452;SDS011;720;47.738;7.998;2024-03-22T00:56:48;3.63;;;2.70;;
1452;SDS011;720;47.738;7.998;2024-03-22T00:59:14;3.40;;;2.63;;
1452;SDS011;720;47.738;7.998;2024-03-22T01:01:39;2.27;;;2.07;;
1452;SDS011;720;47.738;7.998;2024-03-22T01:04:05;2.50;;;2.30;;
1452;SDS011;720;47.738;7.998;2024-03-22T01:06:31;3.53;;;2.60;;
1452;SDS011;720;47.738;7.998;2024-03-22T01:08:56;3.30;;;2.57;;
1452;SDS011;720;47.738;7.998;2024-03-22T01:11:22;2.77;;;2.57;;
1452;SDS011;720;47.738;7.998;2024-03-22T01:13:47;4.07;;;2.40;;
1452;SDS011;720;47.738;7.998;2024-03-22T01:16:13;4.03;;;3.67;;
1452;SDS011;720;47.738;7.998;2024-03-22T01:18:38;4.43;;;2.97;;
1452;SDS011;720;47.738;7.998;2024-03-22T01:21:04;2.50;;;2.40;;
1452;SDS011;720;47.738;7.998;2024-03-22T01:23:30;2.90;;;2.45;;
1452;SDS011;720;47.738;7.998;2024-03-22T01:25:56;3.13;;;2.93;;
1452;SDS011;720;47.738;7.998;2024-03-22T01:28:22;2.38;;;2.13;;
1452;SDS011;720;47.738;7.998;2024-03-22T01:30:48;2.67;;;2.47;;
1452;SDS011;720;47.738;7.998;2024-03-22T01:33:13;2.47;;;2.27;;
1452;SDS011;720;47.738;7.998;2024-03-22T01:35:39;3.50;;;3.13;;
1452;SDS011;720;47.738;7.998;2024-03-22T01:38:05;2.73;;;2.53;;
1452;SDS011;720;47.738;7.998;2024-03-22T01:40:30;2.27;;;2.00;;
1452;SDS011;720;47.738;7.998;2024-03-22T01:42:56;2.55;;;2.20;;
1452;SDS011;720;47.738;7.998;2024-03-22T01:45:22;2.80;;;2.33;;
1452;SDS011;720;47.738;7.998;2024-03-22T01:47:49;2.72;;;2.53;;
1452;SDS011;720;47.738;7.998;2024-03-22T01:50:16;3.05;;;2.80;;
1452;SDS011;720;47.738;7.998;2024-03-22T01:52:43;2.90;;;2.65;;
1452;SDS011;720;47.738;7.998;2024-03-22T01:55:09;3.93;;;2.40;;
1452;SDS011;720;47.738;7.998;2024-03-22T01:57:34;4.83;;;2.87;;
1452;SDS011;720;47.738;7.998;2024-03-22T02:00:01;2.08;;;1.98;;
1452;SDS011;720;47.738;7.998;2024-03-22T02:02:26;2.00;;;1.90;;
1452;SDS011;720;47.738;7.998;2024-03-22T02:04:52;6.57;;;3.57;;
1452;SDS011;720;47.738;7.998;2024-03-22T02:07:18;2.90;;;2.20;;
1452;SDS011;720;47.738;7.998;2024-03-22T02:09:43;2.30;;;2.10;;
1452;SDS011;720;47.738;7.998;2024-03-22T02:12:09;3.40;;;2.85;;
1452;SDS011;720;47.738;7.998;2024-03-22T02:14:36;2.83;;;2.40;;
1452;SDS011;720;47.738;7.998;2024-03-22T02:17:01;3.43;;;2.57;;
1452;SDS011;720;47.738;7.998;2024-03-22T02:19:27;3.30;;;2.60;;
1452;SDS011;720;47.738;7.998;2024-03-22T02:21:52;3.80;;;2.20;;
1452;SDS011;720;47.738;7.998;2024-03-22T02:24:18;2.10;;;1.80;;
1452;SDS011;720;47.738;7.998;2024-03-22T02:26:44;3.20;;;2.47;;
1452;SDS011;720;47.738;7.998;2024-03-22T02:29:09;5.03;;;2.73;;
1452;SDS011;720;47.738;7.998;2024-03-22T02:31:35;2.10;;;2.00;;
1452;SDS011;720;47.738;7.998;2024-03-22T02:34:01;2.83;;;2.20;;
1452;SDS011;720;47.738;7.998;2024-03-22T02:36:26;2.77;;;2.47;;
1452;SDS011;720;47.738;7.998;2024-03-22T02:38:53;5.22;;;2.50;;
1452;SDS011;720;47.738;7.998;2024-03-22T02:41:19;3.33;;;2.80;;
1452;SDS011;720;47.738;7.998;2024-03-22T02:43:46;3.22;;;2.45;;
1452;SDS011;720;47.738;7.998;2024-03-22T02:46:13;4.47;;;2.85;;
1452;SDS011;720;47.738;7.998;2024-03-22T02:48:39;3.83;;;2.20;;
1452;SDS011;720;47.738;7.998;2024-03-22T02:51:05;3.30;;;2.10;;
1452;SDS011;720;47.738;7.998;2024-03-22T02:53:30;2.63;;;2.37;;
1452;SDS011;720;47.738;7.998;2024-03-22T02:55:56;3.23;;;2.80;;
1452;SDS011;720;47.738;7.998;2024-03-22T02:58:25;4.00;;;2.60;;
1452;SDS011;720;47.738;7.998;2024-03-22T03:00:51;4.03;;;2.90;;
1452;SDS011;720;47.738;7.998;2024-03-22T03:03:16;2.00;;;1.87;;
1452;SDS011;720;47.738;7.998;2024-03-22T03:05:42;4.10;;;2.70;;
1452;SDS011;720;47.738;7.998;2024-03-22T03:08:09;2.42;;;2.22;;
1452;SDS011;720;47.738;7.998;2024-03-22T03:10:34;2.13;;;1.97;;
1452;SDS011;720;47.738;7.998;2024-03-22T03:13:00;2.60;;;2.10;;
1452;SDS011;720;47.738;7.998;2024-03-22T03:15:26;2.03;;;1.93;;
1452;SDS011;720;47.738;7.998;2024-03-22T03:17:52;3.10;;;2.80;;
1452;SDS011;720;47.738;7.998;2024-03-22T03:20:17;3.00;;;2.30;;
1452;SDS011;720;47.738;7.998;2024-03-22T03:22:43;3.43;;;3.13;;
1452;SDS011;720;47.738;7.998;2024-03-22T03:25:09;4.70;;;3.00;;
1452;SDS011;720;47.738;7.998;2024-03-22T03:27:34;3.20;;;2.83;;
1452;SDS011;720;47.738;7.998;2024-03-22T03:30:00;4.97;;;2.60;;
1452;SDS011;720;47.738;7.998;2024-03-22T03:32:26;2.37;;;2.20;;
1452;SDS011;720;47.738;7.998;2024-03-22T03:34:52;4.25;;;2.50;;
1452;SDS011;720;47.738;7.998;2024-03-22T03:37:18;4.17;;;2.77;;
1452;SDS011;720;47.738;7.998;2024-03-22T03:39:44;2.83;;;2.53;;
1452;SDS011;720;47.738;7.998;2024-03-22T03:42:10;2.47;;;2.27;;
1452;SDS011;720;47.738;7.998;2024-03-22T03:44:35;4.07;;;2.80;;
1452;SDS011;720;47.738;7.998;2024-03-22T03:47:01;3.20;;;2.90;;
1452;SDS011;720;47.738;7.998;2024-03-22T03:49:27;3.72;;;3.30;;
1452;SDS011;720;47.738;7.998;2024-03-22T03:51:52;2.83;;;2.23;;
1452;SDS011;720;47.738;7.998;2024-03-22T03:54:18;2.73;;;2.50;;
1452;SDS011;720;47.738;7.998;2024-03-22T03:56:44;2.60;;;2.30;;
1452;SDS011;720;47.738;7.998;2024-03-22T03:59:09;2.93;;;2.73;;
1452;SDS011;720;47.738;7.998;2024-03-22T04:01:35;5.47;;;3.00;;
1452;SDS011;720;47.738;7.998;2024-03-22T04:04:02;2.43;;;2.20;;
1452;SDS011;720;47.738;7.998;2024-03-22T04:06:28;3.42;;;2.75;;
1452;SDS011;720;47.738;7.998;2024-03-22T04:08:54;2.67;;;2.47;;
1452;SDS011;720;47.738;7.998;2024-03-22T04:11:19;4.27;;;2.37;;
1452;SDS011;720;47.738;7.998;2024-03-22T04:13:45;2.60;;;2.23;;
1452;SDS011;720;47.738;7.998;2024-03-22T04:16:10;5.43;;;3.10;;
1452;SDS011;720;47.738;7.998;2024-03-22T04:18:36;3.37;;;2.87;;
1452;SDS011;720;47.738;7.998;2024-03-22T04:21:02;4.60;;;2.70;;
1452;SDS011;720;47.738;7.998;2024-03-22T04:23:27;5.23;;;3.20;;
1452;SDS011;720;47.738;7.998;2024-03-22T04:25:59;2.70;;;2.50;;
1452;SDS011;720;47.738;7.998;2024-03-22T04:28:28;2.90;;;2.70;;
1452;SDS011;720;47.738;7.998;2024-03-22T04:31:02;2.88;;;2.67;;
1452;SDS011;720;47.738;7.998;2024-03-22T04:33:30;2.25;;;2.03;;
1452;SDS011;720;47.738;7.998;2024-03-22T04:35:57;2.58;;;2.38;;
1452;SDS011;720;47.738;7.998;2024-03-22T04:38:23;2.97;;;2.78;;
1452;SDS011;720;47.738;7.998;2024-03-22T04:40:50;2.60;;;2.40;;
1452;SDS011;720;47.738;7.998;2024-03-22T04:43:15;4.57;;;3.57;;
1452;SDS011;720;47.738;7.998;2024-03-22T04:45:42;2.70;;;2.50;;
1452;SDS011;720;47.738;7.998;2024-03-22T04:48:08;11.73;;;3.05;;
1452;SDS011;720;47.738;7.998;2024-03-22T04:50:35;2.97;;;2.60;;
1452;SDS011;720;47.738;7.998;2024-03-22T04:53:01;2.90;;;2.70;;
1452;SDS011;720;47.738;7.998;2024-03-22T04:55:27;2.95;;;2.60;;
1452;SDS011;720;47.738;7.998;2024-03-22T04:57:53;3.83;;;3.50;;
1452;SDS011;720;47.738;7.998;2024-03-22T05:00:18;3.50;;;3.20;;
1452;SDS011;720;47.738;7.998;2024-03-22T05:02:44;3.40;;;2.93;;
1452;SDS011;720;47.738;7.998;2024-03-22T05:05:11;5.03;;;3.10;;
1452;SDS011;720;47.738;7.998;2024-03-22T05:07:37;7.38;;;2.75;;
1452;SDS011;720;47.738;7.998;2024-03-22T05:10:03;2.80;;;2.60;;
1452;SDS011;720;47.738;7.998;2024-03-22T05:12:30;3.35;;;3.05;;
1452;SDS011;720;47.738;7.998;2024-03-22T05:14:56;2.87;;;2.63;;
1452;SDS011;720;47.738;7.998;2024-03-22T05:17:21;8.00;;;3.40;;
1452;SDS011;720;47.738;7.998;2024-03-22T05:19:47;2.43;;;2.23;;
1452;SDS011;720;47.738;7.998;2024-03-22T05:22:12;3.53;;;3.27;;
1452;SDS011;720;47.738;7.998;2024-03-22T05:24:38;2.77;;;2.57;;
1452;SDS011;720;47.738;7.998;2024-03-22T05:27:04;6.83;;;3.30;;
1452;SDS011;720;47.738;7.998;2024-03-22T05:29:29;3.40;;;3.13;;
1452;SDS011;720;47.738;7.998;2024-03-22T05:31:55;2.03;;;1.93;;
1452;SDS011;720;47.738;7.998;2024-03-22T05:34:22;3.22;;;3.03;;
1452;SDS011;720;47.738;7.998;2024-03-22T05:36:48;4.83;;;3.00;;
1452;SDS011;720;47.738;7.998;2024-03-22T05:39:13;3.83;;;2.95;;
1452;SDS011;720;47.738;7.998;2024-03-22T05:41:40;3.58;;;2.70;;
1452;SDS011;720;47.738;7.998;2024-03-22T05:44:05;2.90;;;2.70;;
1452;SDS011;720;47.738;7.998;2024-03-22T05:46:31;2.93;;;2.60;;
1452;SDS011;720;47.738;7.998;2024-03-22T05:48:57;3.93;;;3.17;;
1452;SDS011;720;47.738;7.998;2024-03-22T05:51:23;2.88;;;2.45;;
1452;SDS011;720;47.738;7.998;2024-03-22T05:53:50;2.53;;;2.33;;
1452;SDS011;720;47.738;7.998;2024-03-22T05:56:15;3.30;;;2.00;;
1452;SDS011;720;47.738;7.998;2024-03-22T05:58:41;3.15;;;2.70;;
1452;SDS011;720;47.738;7.998;2024-03-22T06:01:07;4.83;;;2.50;;
1452;SDS011;720;47.738;7.998;2024-03-22T06:03:33;3.20;;;2.90;;
1452;SDS011;720;47.738;7.998;2024-03-22T06:05:59;5.53;;;4.70;;
1452;SDS011;720;47.738;7.998;2024-03-22T06:08:25;9.73;;;7.65;;
1452;SDS011;720;47.738;7.998;2024-03-22T06:10:55;9.60;;;8.23;;
1452;SDS011;720;47.738;7.998;2024-03-22T06:13:23;6.40;;;5.20;;
1452;SDS011;720;47.738;7.998;2024-03-22T06:15:49;5.70;;;3.03;;
1452;SDS011;720;47.738;7.998;2024-03-22T06:18:15;5.40;;;3.07;;
1452;SDS011;720;47.738;7.998;2024-03-22T06:20:41;3.03;;;2.73;;
1452;SDS011;720;47.738;7.998;2024-03-22T06:23:09;2.50;;;2.27;;
1452;SDS011;720;47.738;7.998;2024-03-22T06:25:35;3.65;;;3.08;;
1452;SDS011;720;47.738;7.998;2024-03-22T06:28:01;3.33;;;3.03;;
1452;SDS011;720;47.738;7.998;2024-03-22T06:30:27;2.77;;;2.57;;
1452;SDS011;720;47.738;7.998;2024-03-22T06:32:53;3.07;;;2.77;;
1452;SDS011;720;47.738;7.998;2024-03-22T06:35:19;3.40;;;2.17;;
1452;SDS011;720;47.738;7.998;2024-03-22T06:37:45;3.50;;;3.13;;
1452;SDS011;720;47.738;7.998;2024-03-22T06:40:11;10.20;;;5.17;;
1452;SDS011;720;47.738;7.998;2024-03-22T06:42:37;5.80;;;4.07;;
1452;SDS011;720;47.738;7.998;2024-03-22T06:45:03;6.37;;;4.50;;
1452;SDS011;720;47.738;7.998;2024-03-22T06:47:28;3.13;;;2.93;;
1452;SDS011;720;47.738;7.998;2024-03-22T06:49:54;4.77;;;3.70;;
1452;SDS011;720;47.738;7.998;2024-03-22T06:52:21;3.77;;;2.90;;
1452;SDS011;720;47.738;7.998;2024-03-22T06:54:47;3.60;;;2.67;;
1452;SDS011;720;47.738;7.998;2024-03-22T06:57:12;5.90;;;3.00;;
1452;SDS011;720;47.738;7.998;2024-03-22T06:59:38;5.70;;;3.20;;
1452;SDS011;720;47.738;7.998;2024-03-22T07:02:03;6.63;;;2.60;;
1452;SDS011;720;47.738;7.998;2024-03-22T07:04:29;3.93;;;3.03;;
1452;SDS011;720;47.738;7.998;2024-03-22T07:06:55;2.97;;;2.77;;
1452;SDS011;720;47.738;7.998;2024-03-22T07:09:20;5.53;;;3.03;;
1452;SDS011;720;47.738;7.998;2024-03-22T07:11:46;3.60;;;3.30;;
1452;SDS011;720;47.738;7.998;2024-03-22T07:14:12;2.87;;;2.63;;
1452;SDS011;720;47.738;7.998;2024-03-22T07:16:37;6.63;;;2.90;;
1452;SDS011;720;47.738;7.998;2024-03-22T07:19:04;5.90;;;4.27;;
1452;SDS011;720;47.738;7.998;2024-03-22T07:21:30;5.40;;;3.57;;
1452;SDS011;720;47.738;7.998;2024-03-22T07:23:56;3.40;;;2.83;;
1452;SDS011;720;47.738;7.998;2024-03-22T07:26:21;3.40;;;3.10;;
1452;SDS011;720;47.738;7.998;2024-03-22T07:28:47;3.60;;;3.33;;
1452;SDS011;720;47.738;7.998;2024-03-22T07:31:13;5.53;;;3.60;;
1452;SDS011;720;47.738;7.998;2024-03-22T07:33:39;4.87;;;2.70;;
1452;SDS011;720;47.738;7.998;2024-03-22T07:36:05;2.73;;;2.53;;
1452;SDS011;720;47.738;7.998;2024-03-22T07:38:31;3.40;;;3.10;;
1452;SDS011;720;47.738;7.998;2024-03-22T07:40:57;3.63;;;3.20;;
1452;SDS011;720;47.738;7.998;2024-03-22T07:43:23;3.13;;;2.93;;
1452;SDS011;720;47.738;7.998;2024-03-22T07:45:48;3.63;;;2.17;;
1452;SDS011;720;47.738;7.998;2024-03-22T07:48:14;3.63;;;2.30;;
1452;SDS011;720;47.738;7.998;2024-03-22T07:50:40;2.40;;;2.20;;
1452;SDS011;720;47.738;7.998;2024-03-22T07:53:06;3.50;;;3.20;;
1452;SDS011;720;47.738;7.998;2024-03-22T07:55:32;3.70;;;3.00;;
1452;SDS011;720;47.738;7.998;2024-03-22T07:57:58;3.37;;;3.07;;
1452;SDS011;720;47.738;7.998;2024-03-22T08:00:24;3.93;;;3.23;;
1452;SDS011;720;47.738;7.998;2024-03-22T08:02:52;5.73;;;4.53;;
1452;SDS011;720;47.738;7.998;2024-03-22T08:05:18;8.40;;;3.87;;
1452;SDS011;720;47.738;7.998;2024-03-22T08:07:44;4.63;;;3.63;;
1452;SDS011;720;47.738;7.998;2024-03-22T08:10:10;8.10;;;6.10;;
1452;SDS011;720;47.738;7.998;2024-03-22T08:12:36;8.80;;;5.07;;
1452;SDS011;720;47.738;7.998;2024-03-22T08:15:01;4.27;;;3.87;;
1452;SDS011;720;47.738;7.998;2024-03-22T08:17:27;4.30;;;3.90;;
1452;SDS011;720;47.738;7.998;2024-03-22T08:19:53;4.90;;;4.20;;
1452;SDS011;720;47.738;7.998;2024-03-22T08:22:19;10.07;;;5.43;;
1452;SDS011;720;47.738;7.998;2024-03-22T08:24:44;7.70;;;5.10;;
1452;SDS011;720;47.738;7.998;2024-03-22T08:27:10;7.80;;;6.27;;
1452;SDS011;720;47.738;7.998;2024-03-22T08:29:36;8.50;;;3.73;;
1452;SDS011;720;47.738;7.998;2024-03-22T08:32:02;8.30;;;4.87;;
1452;SDS011;720;47.738;7.998;2024-03-22T08:34:31;6.00;;;4.40;;
1452;SDS011;720;47.738;7.998;2024-03-22T08:36:59;4.90;;;2.87;;
1452;SDS011;720;47.738;7.998;2024-03-22T08:39:25;2.83;;;2.63;;
1452;SDS011;720;47.738;7.998;2024-03-22T08:41:51;3.97;;;2.43;;
1452;SDS011;720;47.738;7.998;2024-03-22T08:44:16;4.03;;;3.70;;
1452;SDS011;720;47.738;7.998;2024-03-22T08:46:43;3.07;;;2.70;;
1452;SDS011;720;47.738;7.998;2024-03-22T08:49:08;2.50;;;2.30;;
1452;SDS011;720;47.738;7.998;2024-03-22T08:51:34;2.77;;;2.50;;
1452;SDS011;720;47.738;7.998;2024-03-22T08:53:59;3.53;;;3.20;;
1452;SDS011;720;47.738;7.998;2024-03-22T08:56:26;2.70;;;2.50;;
1452;SDS011;720;47.738;7.998;2024-03-22T08:58:51;2.93;;;2.67;;
1452;SDS011;720;47.738;7.998;2024-03-22T09:01:17;2.87;;;2.03;;
1452;SDS011;720;47.738;7.998;2024-03-22T09:03:43;5.83;;;1.90;;
1452;SDS011;720;47.738;7.998;2024-03-22T09:06:11;3.00;;;1.90;;
1452;SDS011;720;47.738;7.998;2024-03-22T09:08:37;1.43;;;1.23;;
1452;SDS011;720;47.738;7.998;2024-03-22T09:11:03;2.80;;;2.60;;
1452;SDS011;720;47.738;7.998;2024-03-22T09:13:28;4.50;;;2.23;;
1452;SDS011;720;47.738;7.998;2024-03-22T09:16:01;2.00;;;1.70;;
1452;SDS011;720;47.738;7.998;2024-03-22T09:18:27;3.10;;;1.83;;
1452;SDS011;720;47.738;7.998;2024-03-22T09:20:53;3.30;;;2.30;;
1452;SDS011;720;47.738;7.998;2024-03-22T09:23:19;2.63;;;2.43;;
1452;SDS011;720;47.738;7.998;2024-03-22T09:25:48;1.47;;;1.40;;
1452;SDS011;720;47.738;7.998;2024-03-22T09:28:14;2.27;;;2.07;;
1452;SDS011;720;47.738;7.998;2024-03-22T09:30:40;1.27;;;1.17;;
1452;SDS011;720;47.738;7.998;2024-03-22T09:33:06;2.13;;;1.93;;
1452;SDS011;720;47.738;7.998;2024-03-22T09:35:34;1.57;;;1.47;;
1452;SDS011;720;47.738;7.998;2024-03-22T09:38:01;5.20;;;1.67;;
1452;SDS011;720;47.738;7.998;2024-03-22T09:40:27;1.60;;;1.50;;
1452;SDS011;720;47.738;7.998;2024-03-22T09:42:53;5.90;;;2.03;;
1452;SDS011;720;47.738;7.998;2024-03-22T09:45:24;1.57;;;1.47;;
1452;SDS011;720;47.738;7.998;2024-03-22T09:47:51;2.10;;;1.50;;
1452;SDS011;720;47.738;7.998;2024-03-22T09:50:20;2.20;;;1.63;;
1452;SDS011;720;47.738;7.998;2024-03-22T09:52:46;2.13;;;1.80;;
1452;SDS011;720;47.738;7.998;2024-03-22T09:55:13;1.73;;;1.60;;
1452;SDS011;720;47.738;7.998;2024-03-22T09:57:39;2.30;;;1.57;;
1452;SDS011;720;47.738;7.998;2024-03-22T10:00:07;1.67;;;1.57;;
1452;SDS011;720;47.738;7.998;2024-03-22T10:02:34;1.37;;;1.27;;
1452;SDS011;720;47.738;7.998;2024-03-22T10:04:59;2.17;;;1.70;;
1452;SDS011;720;47.738;7.998;2024-03-22T10:07:27;3.67;;;1.93;;
1452;SDS011;720;47.738;7.998;2024-03-22T10:09:53;4.07;;;1.93;;
1452;SDS011;720;47.738;7.998;2024-03-22T10:12:18;1.63;;;1.53;;
1452;SDS011;720;47.738;7.998;2024-03-22T10:14:45;3.03;;;1.70;;
1452;SDS011;720;47.738;7.998;2024-03-22T10:17:11;1.73;;;1.63;;
1452;SDS011;720;47.738;7.998;2024-03-22T10:19:37;1.97;;;1.67;;
1452;SDS011;720;47.738;7.998;2024-03-22T10:22:03;2.30;;;2.10;;
1452;SDS011;720;47.738;7.998;2024-03-22T10:24:29;2.43;;;1.70;;
1452;SDS011;720;47.738;7.998;2024-03-22T10:26:55;1.70;;;1.60;;
1452;SDS011;720;47.738;7.998;2024-03-22T10:29:21;3.67;;;3.33;;
1452;SDS011;720;47.738;7.998;2024-03-22T10:31:47;2.17;;;1.90;;
1452;SDS011;720;47.738;7.998;2024-03-22T10:34:16;2.80;;;2.20;;
1452;SDS011;720;47.738;7.998;2024-03-22T10:36:43;1.90;;;1.70;;
1452;SDS011;720;47.738;7.998;2024-03-22T10:39:09;2.80;;;1.83;;
1452;SDS011;720;47.738;7.998;2024-03-22T10:41:38;2.60;;;1.90;;
1452;SDS011;720;47.738;7.998;2024-03-22T10:44:03;1.60;;;1.37;;
1452;SDS011;720;47.738;7.998;2024-03-22T10:46:30;1.63;;;1.27;;
1452;SDS011;720;47.738;7.998;2024-03-22T10:48:56;3.20;;;1.70;;
1452;SDS011;720;47.738;7.998;2024-03-22T10:51:23;1.47;;;1.37;;
1452;SDS011;720;47.738;7.998;2024-03-22T10:53:51;2.70;;;1.50;;
1452;SDS011;720;47.738;7.998;2024-03-22T10:56:19;1.80;;;1.70;;
1452;SDS011;720;47.738;7.998;2024-03-22T10:58:47;1.80;;;1.70;;
1452;SDS011;720;47.738;7.998;2024-03-22T11:01:24;2.60;;;1.87;;
1452;SDS011;720;47.738;7.998;2024-03-22T11:03:50;2.40;;;1.90;;
1452;SDS011;720;47.738;7.998;2024-03-22T11:06:19;4.07;;;1.73;;
1452;SDS011;720;47.738;7.998;2024-03-22T11:08:50;1.73;;;1.63;;
1452;SDS011;720;47.738;7.998;2024-03-22T11:11:19;1.57;;;1.47;;
1452;SDS011;720;47.738;7.998;2024-03-22T11:13:47;1.83;;;1.30;;
1452;SDS011;720;47.738;7.998;2024-03-22T11:16:14;3.27;;;2.17;;
1452;SDS011;720;47.738;7.998;2024-03-22T11:18:40;1.70;;;1.60;;
1452;SDS011;720;47.738;7.998;2024-03-22T11:21:06;1.70;;;1.60;;
1452;SDS011;720;47.738;7.998;2024-03-22T11:23:34;1.53;;;1.43;;
1452;SDS011;720;47.738;7.998;2024-03-22T11:26:02;1.90;;;1.80;;
1452;SDS011;720;47.738;7.998;2024-03-22T11:28:29;2.20;;;1.87;;
1452;SDS011;720;47.738;7.998;2024-03-22T11:30:55;1.70;;;1.60;;
1452;SDS011;720;47.738;7.998;2024-03-22T11:33:21;1.83;;;1.70;;
1452;SDS011;720;47.738;7.998;2024-03-22T11:35:47;1.30;;;1.20;;
1452;SDS011;720;47.738;7.998;2024-03-22T11:38:14;3.43;;;1.50;;
1452;SDS011;720;47.738;7.998;2024-03-22T11:40:40;1.40;;;1.30;;
1452;SDS011;720;47.738;7.998;2024-03-22T11:43:06;1.10;;;1.03;;
1452;SDS011;720;47.738;7.998;2024-03-22T11:45:32;1.50;;;1.00;;
1452;SDS011;720;47.738;7.998;2024-03-22T11:48:01;2.40;;;1.50;;
1452;SDS011;720;47.738;7.998;2024-03-22T11:50:28;0.97;;;0.90;;
1452;SDS011;720;47.738;7.998;2024-03-22T11:52:53;1.47;;;1.20;;
1452;SDS011;720;47.738;7.998;2024-03-22T11:55:19;1.20;;;1.13;;
1452;SDS011;720;47.738;7.998;2024-03-22T11:57:48;1.10;;;1.00;;
1452;SDS011;720;47.738;7.998;2024-03-22T12:00:14;1.40;;;1.27;;
1452;SDS011;720;47.738;7.998;2024-03-22T12:02:42;1.10;;;1.10;;
1452;SDS011;720;47.738;7.998;2024-03-22T12:05:08;1.37;;;1.00;;
1452;SDS011;720;47.738;7.998;2024-03-22T12:07:34;1.73;;;0.90;;
1452;SDS011;720;47.738;7.998;2024-03-22T12:10:00;1.00;;;1.00;;
1452;SDS011;720;47.738;7.998;2024-03-22T12:12:26;1.80;;;1.70;;
1452;SDS011;720;47.738;7.998;2024-03-22T12:14:52;0.90;;;0.90;;
1452;SDS011;720;47.738;7.998;2024-03-22T12:17:17;0.70;;;0.70;;
1452;SDS011;720;47.738;7.998;2024-03-22T12:19:43;2.20;;;1.37;;
1452;SDS011;720;47.738;7.998;2024-03-22T12:22:09;2.70;;;1.10;;
1452;SDS011;720;47.738;7.998;2024-03-22T12:24:35;1.23;;;1.23;;
1452;SDS011;720;47.738;7.998;2024-03-22T12:27:02;0.90;;;0.70;;
1452;SDS011;720;47.738;7.998;2024-03-22T12:29:28;0.90;;;0.90;;
1452;SDS011;720;47.738;7.998;2024-03-22T12:31:54;1.00;;;1.00;;
1452;SDS011;720;47.738;7.998;2024-03-22T12:34:19;1.47;;;0.87;;
1452;SDS011;720;47.738;7.998;2024-03-22T12:36:45;1.33;;;1.20;;
1452;SDS011;720;47.738;7.998;2024-03-22T12:39:11;1.07;;;1.00;;
1452;SDS011;720;47.738;7.998;2024-03-22T12:41:36;2.30;;;2.00;;
1452;SDS011;720;47.738;7.998;2024-03-22T12:44:02;1.30;;;1.20;;
1452;SDS011;720;47.738;7.998;2024-03-22T12:46:28;1.13;;;0.80;;
1452;SDS011;720;47.738;7.998;2024-03-22T12:48:54;5.70;;;0.80;;
1452;SDS011;720;47.738;7.998;2024-03-22T12:51:20;1.67;;;1.13;;
1452;SDS011;720;47.738;7.998;2024-03-22T12:53:46;1.10;;;0.90;;
1452;SDS011;720;47.738;7.998;2024-03-22T12:56:11;1.00;;;1.00;;
1452;SDS011;720;47.738;7.998;2024-03-22T12:58:37;0.60;;;0.60;;
1452;SDS011;720;47.738;7.998;2024-03-22T13:01:03;1.47;;;0.93;;
1452;SDS011;720;47.738;7.998;2024-03-22T13:03:30;1.20;;;0.93;;
1452;SDS011;720;47.738;7.998;2024-03-22T13:05:59;1.10;;;1.10;;
1452;SDS011;720;47.738;7.998;2024-03-22T13:08:25;1.00;;;1.00;;
1452;SDS011;720;47.738;7.998;2024-03-22T13:10:50;1.50;;;0.83;;
1452;SDS011;720;47.738;7.998;2024-03-22T13:13:17;1.63;;;0.90;;
1452;SDS011;720;47.738;7.998;2024-03-22T13:15:43;3.40;;;0.93;;
1452;SDS011;720;47.738;7.998;2024-03-22T13:18:08;2.63;;;1.07;;
1452;SDS011;720;47.738;7.998;2024-03-22T13:20:35;1.63;;;1.33;;
1452;SDS011;720;47.738;7.998;2024-03-22T13:23:01;1.47;;;0.97;;
1452;SDS011;720;47.738;7.998;2024-03-22T13:25:27;1.00;;;0.90;;
1452;SDS011;720;47.738;7.998;2024-03-22T13:27:53;0.80;;;0.70;;
1452;SDS011;720;47.738;7.998;2024-03-22T13:30:19;0.87;;;0.80;;
1452;SDS011;720;47.738;7.998;2024-03-22T13:32:44;0.83;;;0.83;;
1452;SDS011;720;47.738;7.998;2024-03-22T13:35:10;0.77;;;0.77;;
1452;SDS011;720;47.738;7.998;2024-03-22T13:37:36;1.27;;;1.17;;
1452;SDS011;720;47.738;7.998;2024-03-22T13:40:02;1.73;;;1.70;;
1452;SDS011;720;47.738;7.998;2024-03-22T13:42:28;1.37;;;1.00;;
1452;SDS011;720;47.738;7.998;2024-03-22T13:44:53;0.50;;;0.50;;
1452;SDS011;720;47.738;7.998;2024-03-22T13:47:21;1.63;;;0.70;;
1452;SDS011;720;47.738;7.998;2024-03-22T13:49:47;0.67;;;0.53;;
1452;SDS011;720;47.738;7.998;2024-03-22T13:52:13;1.90;;;0.70;;
1452;SDS011;720;47.738;7.998;2024-03-22T13:54:39;0.73;;;0.73;;
1452;SDS011;720;47.738;7.998;2024-03-22T13:57:05;1.00;;;0.77;;
1452;SDS011;720;47.738;7.998;2024-03-22T13:59:31;0.80;;;0.80;;
1452;SDS011;720;47.738;7.998;2024-03-22T14:01:56;0.57;;;0.57;;
1452;SDS011;720;47.738;7.998;2024-03-22T14:04:23;0.60;;;0.60;;
1452;SDS011;720;47.738;7.998;2024-03-22T14:06:49;0.60;;;0.60;;
1452;SDS011;720;47.738;7.998;2024-03-22T14:09:14;1.73;;;0.70;;
1452;SDS011;720;47.738;7.998;2024-03-22T14:11:40;0.80;;;0.80;;
1452;SDS011;720;47.738;7.998;2024-03-22T14:14:08;1.20;;;1.10;;
1452;SDS011;720;47.738;7.998;2024-03-22T14:16:37;0.70;;;0.70;;
1452;SDS011;720;47.738;7.998;2024-03-22T14:19:08;1.27;;;0.70;;
1452;SDS011;720;47.738;7.998;2024-03-22T14:21:34;0.90;;;0.90;;
1452;SDS011;720;47.738;7.998;2024-03-22T14:24:00;1.00;;;0.67;;
1452;SDS011;720;47.738;7.998;2024-03-22T14:26:26;1.83;;;0.77;;
1452;SDS011;720;47.738;7.998;2024-03-22T14:28:51;0.90;;;0.70;;
1452;SDS011;720;47.738;7.998;2024-03-22T14:31:18;0.60;;;0.60;;
1452;SDS011;720;47.738;7.998;2024-03-22T14:33:44;2.43;;;1.00;;
1452;SDS011;720;47.738;7.998;2024-03-22T14:36:10;1.90;;;0.70;;
1452;SDS011;720;47.738;7.998;2024-03-22T14:38:37;1.63;;;0.60;;
1452;SDS011;720;47.738;7.998;2024-03-22T14:41:03;0.70;;;0.63;;
1452;SDS011;720;47.738;7.998;2024-03-22T14:43:28;1.33;;;0.70;;
1452;SDS011;720;47.738;7.998;2024-03-22T14:45:56;0.50;;;0.50;;
1452;SDS011;720;47.738;7.998;2024-03-22T14:48:22;0.77;;;0.77;;
1452;SDS011;720;47.738;7.998;2024-03-22T14:50:49;1.20;;;0.87;;
1452;SDS011;720;47.738;7.998;2024-03-22T14:53:18;0.53;;;0.53;;
1452;SDS011;720;47.738;7.998;2024-03-22T14:55:52;0.80;;;0.80;;
1452;SDS011;720;47.738;7.998;2024-03-22T14:58:19;0.50;;;0.50;;
1452;SDS011;720;47.738;7.998;2024-03-22T15:00:55;0.70;;;0.63;;
1452;SDS011;720;47.738;7.998;2024-03-22T15:03:22;0.77;;;0.77;;
1452;SDS011;720;47.738;7.998;2024-03-22T15:05:51;0.83;;;0.83;;
1452;SDS011;720;47.738;7.998;2024-03-22T15:08:19;1.70;;;0.97;;
1452;SDS011;720;47.738;7.998;2024-03-22T15:10:45;0.60;;;0.60;;
1452;SDS011;720;47.738;7.998;2024-03-22T15:13:11;0.60;;;0.50;;
1452;SDS011;720;47.738;7.998;2024-03-22T15:15:38;0.60;;;0.60;;
1452;SDS011;720;47.738;7.998;2024-03-22T15:18:04;1.87;;;0.70;;
1452;SDS011;720;47.738;7.998;2024-03-22T15:20:32;1.17;;;0.70;;
1452;SDS011;720;47.738;7.998;2024-03-22T15:22:59;0.77;;;0.63;;